Time;durP1;ratioP1;P1;durP2;ratioP2;P2;SDS_P1;SDS_P2;PMS_P1;PMS_P2;Temp;Humidity;BMP_temperature;BMP_pressure;BME280_temperature;BME280_humidity;BME280_pressure;Samples;Min_cycle;Max_cycle;Signal;HPM_P1;HPM_P2
2023/07/03 00:04:14;;;;;;;2.80;2.50;;;;;;;20.10;62.40;98496.98;223682;183;138947;-64
2023/07/03 00:09:17;;;;;;;4.80;3.20;;;;;;;20.08;62.91;98498.75;223662;183;137056;-62
2023/07/03 00:14:20;;;;;;;5.20;3.00;;;;;;;20.02;64.08;98500.12;223711;182;145325;-66
2023/07/03 00:19:26;;;;;;;4.50;3.10;;;;;;;20.00;64.48;98507.59;223610;182;139012;-65
2023/07/03 00:24:31;;;;;;;3.90;2.70;;;;;;;19.97;64.25;98514.23;223819;182;139107;-66
2023/07/03 00:29:34;;;;;;;3.30;2.80;;;;;;;19.96;62.94;98521.16;223704;182;145916;-68
2023/07/03 00:34:38;;;;;;;5.40;2.80;;;;;;;19.96;62.90;98519.03;223757;182;138857;-67
2023/07/03 00:39:41;;;;;;;5.50;3.20;;;;;;;19.95;63.48;98521.47;223694;183;136759;-65
2023/07/03 00:44:45;;;;;;;7.00;3.00;;;;;;;19.91;62.98;98516.39;223735;183;145371;-65
2023/07/03 00:49:49;;;;;;;5.30;2.90;;;;;;;19.93;63.32;98518.13;223652;182;138293;-64
2023/07/03 00:54:54;;;;;;;5.80;3.20;;;;;;;19.99;63.14;98517.08;223750;182;137182;-64
2023/07/03 00:59:59;;;;;;;3.80;2.70;;;;;;;20.03;62.52;98516.34;223731;182;145330;-66
2023/07/03 01:05:21;;;;;;;3.50;2.70;;;;;;;20.02;61.96;98516.52;223593;183;138411;-67
2023/07/03 01:10:28;;;;;;;4.60;2.80;;;;;;;20.02;61.72;98523.53;223753;182;136235;-66
2023/07/03 01:15:36;;;;;;;5.20;3.00;;;;;;;19.94;61.95;98531.33;223757;182;145321;-66
2023/07/03 01:20:45;;;;;;;5.00;3.60;;;;;;;19.85;62.18;98534.09;223673;183;138493;-66
2023/07/03 01:25:51;;;;;;;5.50;3.50;;;;;;;19.81;62.45;98532.72;223818;182;137413;-66
2023/07/03 01:30:56;;;;;;;7.30;3.20;;;;;;;19.76;62.49;98544.64;223728;183;146180;-65
2023/07/03 01:36:00;;;;;;;4.80;3.10;;;;;;;19.74;62.93;98536.52;223747;182;139012;-64
2023/07/03 01:41:06;;;;;;;5.60;3.40;;;;;;;19.73;63.13;98536.86;223773;182;137399;-65
2023/07/03 01:46:10;;;;;;;4.70;3.60;;;;;;;19.64;63.62;98535.14;223840;181;145664;-67
2023/07/03 01:51:19;;;;;;;7.30;3.30;;;;;;;19.58;64.03;98537.84;223673;182;139277;-64
2023/07/03 01:56:31;;;;;;;4.00;2.80;;;;;;;19.56;64.38;98536.41;223773;182;137414;-65
2023/07/03 02:01:45;;;;;;;5.00;3.20;;;;;;;19.56;64.60;98541.11;223713;182;145866;-65
2023/07/03 02:06:52;;;;;;;5.40;3.20;;;;;;;19.60;64.81;98543.20;223806;183;138268;-67
2023/07/03 02:11:55;;;;;;;6.70;3.50;;;;;;;19.61;64.89;98543.11;223708;182;136942;-66
2023/07/03 02:16:59;;;;;;;4.80;3.10;;;;;;;19.58;64.91;98545.98;223688;182;145302;-66
2023/07/03 02:22:03;;;;;;;8.30;3.50;;;;;;;19.52;64.98;98547.51;223772;182;138244;-67
2023/07/03 02:27:07;;;;;;;6.80;3.70;;;;;;;19.44;65.06;98544.76;223796;182;136857;-67
2023/07/03 02:32:12;;;;;;;6.30;3.50;;;;;;;19.39;65.41;98548.00;223717;182;145885;-66
2023/07/03 02:37:18;;;;;;;162.80;143.50;;;;;;;19.34;65.49;98552.60;223758;181;138313;-67
2023/07/03 02:42:22;;;;;;;10.10;7.30;;;;;;;19.32;65.62;98554.83;223733;182;138306;-67
2023/07/03 02:47:25;;;;;;;26.70;22.00;;;;;;;19.33;66.17;98556.21;223665;182;145072;-67
2023/07/03 02:52:30;;;;;;;4.60;3.10;;;;;;;19.31;66.64;98555.33;223771;182;138655;-65
2023/07/03 02:57:35;;;;;;;32.70;26.60;;;;;;;19.43;67.18;98563.91;223767;182;136552;-67
2023/07/03 03:02:43;;;;;;;8.20;4.50;;;;;;;19.55;65.97;98564.66;223665;181;145221;-66
2023/07/03 03:07:47;;;;;;;4.90;4.00;;;;;;;19.47;66.02;98566.05;223726;182;138137;-66
2023/07/03 03:12:51;;;;;;;14.90;11.60;;;;;;;19.41;66.08;98561.44;223799;182;137052;-65
2023/07/03 03:17:54;;;;;;;8.50;4.50;;;;;;;19.37;66.28;98565.51;223617;181;145009;-65
2023/07/03 03:23:01;;;;;;;9.00;4.00;;;;;;;19.32;66.43;98558.77;223683;182;138436;-64
2023/07/03 03:28:06;;;;;;;6.60;4.40;;;;;;;19.32;66.55;98556.72;223704;182;137655;-65
2023/07/03 03:33:09;;;;;;;7.80;4.40;;;;;;;19.27;67.06;98560.30;223697;181;145773;-68
2023/07/03 03:38:12;;;;;;;7.40;4.40;;;;;;;19.21;67.12;98564.65;223723;182;138735;-68
2023/07/03 03:43:16;;;;;;;7.20;4.60;;;;;;;19.23;67.19;98564.87;223650;182;137565;-65
2023/07/03 03:48:19;;;;;;;6.50;4.30;;;;;;;19.29;67.11;98563.62;223647;182;147184;-67
2023/07/03 03:53:23;;;;;;;8.10;5.10;;;;;;;19.29;67.14;98567.94;223646;182;138515;-67
2023/07/03 03:58:26;;;;;;;8.80;5.30;;;;;;;19.26;66.86;98574.21;223648;182;136581;-65
2023/07/03 04:03:30;;;;;;;5.40;4.40;;;;;;;19.28;66.80;98579.42;223658;181;147713;-65
2023/07/03 04:08:33;;;;;;;6.40;4.30;;;;;;;19.32;67.10;98577.31;223693;182;139921;-67
2023/07/03 04:13:37;;;;;;;5.70;4.50;;;;;;;19.37;66.67;98571.61;223749;181;136388;-65
2023/07/03 04:18:41;;;;;;;9.00;5.00;;;;;;;19.44;66.44;98569.65;223769;182;147588;-66
2023/07/03 04:23:45;;;;;;;11.20;4.60;;;;;;;19.45;66.38;98573.59;223659;182;138074;-66
2023/07/03 04:28:49;;;;;;;6.50;4.40;;;;;;;19.55;66.53;98576.13;223729;182;137747;-66
2023/07/03 04:33:52;;;;;;;7.90;5.00;;;;;;;19.75;66.18;98580.57;223762;181;147600;-66
2023/07/03 04:38:57;;;;;;;9.00;4.90;;;;;;;19.87;65.80;98580.90;223747;182;138478;-66
2023/07/03 04:44:01;;;;;;;11.00;5.20;;;;;;;19.95;65.75;98581.23;223750;182;137584;-65
2023/07/03 04:49:04;;;;;;;8.10;4.30;;;;;;;20.01;65.33;98582.93;223638;182;148476;-65
2023/07/03 04:54:07;;;;;;;7.30;4.40;;;;;;;20.10;65.28;98585.72;223691;182;139291;-67
2023/07/03 04:59:28;;;;;;;7.80;4.20;;;;;;;20.22;64.85;98588.98;223732;181;136783;-67
2023/07/03 05:04:32;;;;;;;12.40;4.80;;;;;;;20.28;64.74;98591.50;223803;182;148154;-67
2023/07/03 05:09:35;;;;;;;8.90;4.80;;;;;;;20.36;64.39;98588.52;223657;182;138957;-68
2023/07/03 05:14:38;;;;;;;9.90;4.20;;;;;;;20.42;64.11;98592.38;223778;182;137147;-65
2023/07/03 05:19:41;;;;;;;8.70;4.00;;;;;;;20.44;63.37;98594.31;223677;182;147436;-68
2023/07/03 05:24:44;;;;;;;5.60;4.00;;;;;;;20.46;62.83;98597.06;223665;182;138890;-67
2023/07/03 05:29:48;;;;;;;7.20;4.30;;;;;;;20.47;62.72;98600.42;223759;182;136874;-67
2023/07/03 05:34:51;;;;;;;5.90;4.00;;;;;;;20.52;62.69;98599.20;223777;182;147014;-67
2023/07/03 05:39:55;;;;;;;9.70;4.00;;;;;;;20.58;62.31;98595.70;223694;182;140693;-65
2023/07/03 05:44:58;;;;;;;5.10;3.60;;;;;;;20.62;62.24;98598.09;223711;182;136494;-65
2023/07/03 05:50:02;;;;;;;6.90;4.00;;;;;;;20.66;61.93;98606.34;223673;182;147811;-66
2023/07/03 05:55:05;;;;;;;4.50;3.50;;;;;;;20.72;61.64;98609.00;223745;182;138272;-65
2023/07/03 06:00:15;;;;;;;6.10;3.70;;;;;;;20.78;61.45;98614.74;223701;181;140596;-65
2023/07/03 06:05:21;;;;;;;8.40;3.80;;;;;;;20.86;60.95;98619.80;223750;182;147750;-65
2023/07/03 06:10:24;;;;;;;6.20;3.60;;;;;;;20.93;59.94;98615.16;223665;183;139220;-65
2023/07/03 06:15:27;;;;;;;5.70;4.20;;;;;;;20.98;58.98;98617.12;223621;182;137346;-65
2023/07/03 06:20:31;;;;;;;7.20;3.50;;;;;;;21.06;59.27;98618.63;223637;182;148185;-66
2023/07/03 06:25:34;;;;;;;5.20;3.40;;;;;;;21.16;58.27;98620.33;223590;181;138174;-67
2023/07/03 06:30:37;;;;;;;7.00;3.50;;;;;;;21.26;58.04;98623.24;223797;182;136567;-69
2023/07/03 06:35:41;;;;;;;10.50;3.20;;;;;;;21.33;56.56;98622.80;223670;181;267493;-68
2023/07/03 06:40:54;;;;;;;6.50;3.30;;;;;;;21.40;56.46;98622.05;223694;182;138350;-69
2023/07/03 06:45:57;;;;;;;7.70;3.30;;;;;;;21.49;56.17;98616.80;223646;182;137970;-68
2023/07/03 06:51:06;;;;;;;5.70;3.30;;;;;;;21.61;55.21;98616.91;223757;181;147382;-68
2023/07/03 06:56:09;;;;;;;7.80;3.00;;;;;;;21.73;55.14;98611.92;223605;181;139468;-68
2023/07/03 07:01:13;;;;;;;5.70;3.50;;;;;;;21.82;53.74;98608.31;223733;182;137571;-67
2023/07/03 07:06:22;;;;;;;7.50;3.50;;;;;;;21.93;53.10;98608.13;223686;181;147643;-70
2023/07/03 07:13:15;;;;;;;4.70;3.00;;;;;;;22.08;52.03;98609.48;221728;193;666428;-67
2023/07/03 07:18:18;;;;;;;7.00;3.50;;;;;;;22.17;51.77;98610.95;223728;183;139566;-66
2023/07/03 07:23:21;;;;;;;5.70;3.10;;;;;;;22.28;51.62;98603.43;223794;183;143404;-68
2023/07/03 07:28:24;;;;;;;10.00;6.20;;;;;;;22.38;50.75;98604.02;223789;183;138202;-67
2023/07/03 07:33:27;;;;;;;5.50;2.80;;;;;;;22.44;50.01;98602.35;223679;182;136000;-64
2023/07/03 07:38:31;;;;;;;9.00;3.40;;;;;;;22.52;49.03;98598.94;223775;183;144030;-65
2023/07/03 07:43:34;;;;;;;6.30;3.10;;;;;;;22.64;48.62;98594.01;223828;181;138534;-67
2023/07/03 07:48:37;;;;;;;4.80;3.40;;;;;;;22.74;47.48;98594.77;223739;181;135927;-65
2023/07/03 07:53:54;;;;;;;5.00;3.50;;;;;;;22.84;46.27;98593.18;223750;181;144143;-68
2023/07/03 07:58:57;;;;;;;7.20;3.60;;;;;;;22.96;44.97;98587.54;223729;181;138250;-64
2023/07/03 08:04:01;;;;;;;6.70;3.40;;;;;;;23.05;44.51;98589.62;223756;181;137123;-69
2023/07/03 08:09:04;;;;;;;9.20;5.80;;;;;;;23.12;43.11;98594.45;223773;181;145847;-66
2023/07/03 08:14:08;;;;;;;10.90;3.70;;;;;;;23.13;41.54;98598.96;223630;181;139126;-69
2023/07/03 08:19:11;;;;;;;5.90;3.30;;;;;;;23.18;42.94;98589.03;223724;182;138287;-69
2023/07/03 08:24:14;;;;;;;9.00;4.30;;;;;;;23.28;42.71;98583.23;223812;182;145433;-68
2023/07/03 08:29:17;;;;;;;6.90;4.40;;;;;;;23.44;42.77;98580.74;223815;182;138300;-66
2023/07/03 08:34:21;;;;;;;7.10;4.40;;;;;;;23.61;41.01;98576.62;223592;182;137735;-67
2023/07/03 08:39:24;;;;;;;7.70;4.30;;;;;;;23.76;41.29;98573.05;223692;181;145245;-67
2023/07/03 08:44:28;;;;;;;6.10;4.20;;;;;;;23.81;41.57;98568.40;223785;182;138370;-70
2023/07/03 08:49:33;;;;;;;9.70;4.40;;;;;;;23.76;40.63;98577.09;223787;182;137601;-67
2023/07/03 08:54:37;;;;;;;14.40;6.80;;;;;;;23.74;39.30;98577.95;223584;182;145523;-67
2023/07/03 08:59:41;;;;;;;7.10;4.30;;;;;;;23.85;38.48;98574.93;223686;182;138911;-68
2023/07/03 09:05:28;;;;;;;6.70;4.10;;;;;;;23.90;38.84;98571.92;223803;181;137167;-67
2023/07/03 09:10:48;;;;;;;8.70;4.10;;;;;;;23.91;40.09;98582.53;223612;182;145624;-69
2023/07/03 09:15:55;;;;;;;7.40;4.20;;;;;;;23.97;39.63;98581.17;223660;182;138756;-65
2023/07/03 09:21:00;;;;;;;9.20;4.20;;;;;;;24.10;39.98;98575.08;223752;182;136392;-66
2023/07/03 09:26:11;;;;;;;28.90;17.40;;;;;;;24.24;39.49;98572.38;223667;182;146065;-66
2023/07/03 09:31:14;;;;;;;10.10;6.80;;;;;;;24.42;38.84;98561.63;223408;182;138205;-65
2023/07/03 09:36:22;;;;;;;12.10;6.20;;;;;;;24.55;37.00;98574.83;223726;181;137906;-63
2023/07/03 09:41:33;;;;;;;11.30;6.40;;;;;;;24.61;36.23;98568.52;223732;181;145341;-63
2023/07/03 09:46:36;;;;;;;16.00;7.10;;;;;;;24.69;36.66;98570.50;223660;181;138355;-67
2023/07/03 09:51:40;;;;;;;14.10;7.60;;;;;;;24.76;36.68;98568.88;223703;181;137207;-65
2023/07/03 09:56:43;;;;;;;11.90;7.20;;;;;;;24.80;35.78;98573.45;223759;181;146507;-62
2023/07/03 10:01:47;;;;;;;16.20;7.70;;;;;;;24.86;35.04;98581.38;223752;181;139261;-68
2023/07/03 10:06:59;;;;;;;14.50;7.90;;;;;;;24.97;33.89;98583.99;223648;181;137157;-66
2023/07/03 10:13:29;;;;;;;12.20;8.50;;;;;;;25.09;33.00;98589.32;221586;193;665101;-66
2023/07/03 10:18:38;;;;;;;17.70;8.30;;;;;;;25.12;33.15;98584.41;223301;186;136264;-64
2023/07/03 10:23:42;;;;;;;19.90;9.90;;;;;;;25.15;33.66;98590.77;223215;185;143522;-68
2023/07/03 10:28:56;;;;;;;20.60;9.00;;;;;;;25.20;32.74;98590.72;223615;183;138051;-69
2023/07/03 10:34:04;;;;;;;12.40;8.10;;;;;;;25.28;32.82;98595.23;223702;183;137024;-69
2023/07/03 10:39:14;;;;;;;16.80;8.70;;;;;;;25.28;32.51;98595.63;223782;183;143527;-68
2023/07/03 10:44:25;;;;;;;16.30;9.50;;;;;;;25.36;32.66;98596.20;223668;183;139196;-69
2023/07/03 10:49:33;;;;;;;20.80;9.70;;;;;;;25.40;32.86;98594.31;223624;183;136691;-68
2023/07/03 10:54:45;;;;;;;16.40;9.10;;;;;;;25.34;32.97;98594.44;223765;183;143546;-69
2023/07/03 10:59:54;;;;;;;17.60;9.10;;;;;;;25.57;32.78;98583.71;223726;182;148359;-67
2023/07/03 11:05:26;;;;;;;17.80;9.90;;;;;;;25.82;32.32;98587.94;223738;182;136924;-70
2023/07/03 11:10:32;;;;;;;15.20;9.00;;;;;;;25.86;31.81;98592.48;223780;182;145376;-68
2023/07/03 11:15:46;;;;;;;19.80;9.10;;;;;;;26.00;31.30;98588.09;223687;182;139454;-68
2023/07/03 11:21:14;;;;;;;16.40;8.80;;;;;;;26.15;31.36;98582.42;223714;182;136721;-68
2023/07/03 11:26:38;;;;;;;17.30;10.80;;;;;;;26.33;31.60;98577.29;223794;181;147651;-68
2023/07/03 11:31:45;;;;;;;17.20;9.10;;;;;;;26.42;31.35;98583.23;223773;181;138808;-69
2023/07/03 11:36:52;;;;;;;14.90;8.60;;;;;;;26.51;31.46;98579.53;223772;181;136849;-68
2023/07/03 11:42:06;;;;;;;15.50;9.10;;;;;;;26.65;31.47;98580.94;223759;181;145854;-69
2023/07/03 11:47:16;;;;;;;13.40;8.20;;;;;;;26.56;31.99;98574.09;223687;181;139302;-65
2023/07/03 11:52:26;;;;;;;13.60;7.80;;;;;;;26.48;31.16;98573.17;223810;181;136307;-65
2023/07/03 11:57:39;;;;;;;14.60;8.30;;;;;;;26.48;31.49;98578.76;223867;181;145292;-65
2023/07/03 12:02:53;;;;;;;14.00;8.90;;;;;;;26.54;31.17;98576.13;223635;181;138913;-67
2023/07/03 12:13:41;;;;;;;20.00;9.10;;;;;;;26.83;31.05;98573.40;222304;189;666289;-66
2023/07/03 12:18:44;;;;;;;15.90;8.60;;;;;;;26.91;30.66;98566.04;223633;183;136426;-66
2023/07/03 12:23:48;;;;;;;21.00;12.50;;;;;;;27.16;30.66;98567.92;223429;183;143433;-64
2023/07/03 12:29:04;;;;;;;14.90;9.40;;;;;;;27.22;30.33;98570.05;223557;183;138358;-66
2023/07/03 12:34:09;;;;;;;14.00;8.30;;;;;;;27.13;30.26;98568.50;223721;182;140511;-66
2023/07/03 12:39:14;;;;;;;143.50;113.70;;;;;;;27.29;29.86;98564.32;223781;183;143525;-65
2023/07/03 12:44:22;;;;;;;15.20;9.20;;;;;;;27.49;29.91;98558.71;223849;181;141480;-63
2023/07/03 12:49:25;;;;;;;20.40;8.90;;;;;;;27.76;29.64;98554.63;224006;181;136595;-64
2023/07/03 12:54:36;;;;;;;13.40;8.50;;;;;;;28.02;28.77;98552.27;223771;181;144662;-68
2023/07/03 12:59:46;;;;;;;14.30;10.00;;;;;;;28.17;28.35;98545.30;223803;181;138225;-67
2023/07/03 13:04:58;;;;;;;12.90;8.00;;;;;;;28.40;28.95;98537.45;224269;207;136237;-65
2023/07/03 13:10:27;;;;;;;14.30;8.70;;;;;;;28.67;28.24;98532.11;224243;214;145203;-65
2023/07/03 13:15:37;;;;;;;17.70;8.60;;;;;;;28.82;27.89;98541.76;224291;214;138634;-64
2023/07/03 13:20:53;;;;;;;14.90;8.60;;;;;;;28.98;27.76;98533.52;224233;214;129298;-64
2023/07/03 13:25:57;;;;;;;14.30;9.00;;;;;;;29.08;27.75;98533.85;223832;182;145884;-65
2023/07/03 13:31:18;;;;;;;14.70;8.80;;;;;;;29.29;27.82;98525.21;223825;183;140371;-64
2023/07/03 13:36:30;;;;;;;59.10;43.30;;;;;;;29.36;27.39;98532.23;223661;182;136461;-65
2023/07/03 13:41:34;;;;;;;16.70;12.30;;;;;;;29.33;27.27;98530.44;223618;183;145703;-65
2023/07/03 13:46:39;;;;;;;16.70;8.80;;;;;;;29.40;26.98;98526.52;223711;183;139750;-67
2023/07/03 13:51:45;;;;;;;14.90;8.70;;;;;;;29.38;27.43;98518.08;223625;183;137172;-65
2023/07/03 13:56:48;;;;;;;16.70;8.10;;;;;;;29.49;26.83;98526.35;223585;183;146067;-66
2023/07/03 14:01:51;;;;;;;16.00;8.50;;;;;;;29.53;27.13;98519.16;223634;182;138447;-67
2023/07/03 14:06:55;;;;;;;15.70;8.50;;;;;;;29.63;27.07;98517.70;223627;182;136714;-65
2023/07/03 14:11:58;;;;;;;18.30;9.20;;;;;;;29.67;27.17;98520.86;223587;183;146235;-67
2023/07/03 14:17:01;;;;;;;17.30;9.60;;;;;;;29.62;27.15;98514.98;223638;182;140106;-68
2023/07/03 14:22:05;;;;;;;14.50;8.40;;;;;;;29.54;27.32;98512.65;223788;183;136596;-67
2023/07/03 14:27:09;;;;;;;18.70;9.40;;;;;;;29.44;27.94;98511.67;223635;182;145301;-65
2023/07/03 14:32:12;;;;;;;18.70;8.90;;;;;;;29.42;28.44;98514.23;223648;182;138691;-70
2023/07/03 14:37:17;;;;;;;17.90;9.50;;;;;;;29.30;28.23;98514.45;223728;181;136326;-70
2023/07/03 15:13:15;;;;;;;16.00;9.60;;;;;;;27.77;30.19;98507.02;221612;192;667032;-65
2023/07/03 15:18:18;;;;;;;16.40;10.60;;;;;;;27.67;30.45;98508.83;223542;184;136524;-65
2023/07/03 15:23:28;;;;;;;15.30;9.80;;;;;;;27.58;30.52;98512.45;223806;182;143416;-64
2023/07/03 15:28:31;;;;;;;17.00;9.20;;;;;;;27.45;30.72;98502.41;223747;182;139199;-64
2023/07/03 15:33:35;;;;;;;17.70;9.50;;;;;;;27.39;30.98;98502.17;223773;182;136934;-64
2023/07/03 15:38:39;;;;;;;20.30;10.00;;;;;;;27.34;31.22;98502.88;223674;182;143454;-64
2023/07/03 15:43:43;;;;;;;15.90;9.00;;;;;;;27.31;31.55;98502.30;223813;182;139113;-66
2023/07/03 18:05:46;;;;;;;74.40;65.40;;;;;;;26.33;35.29;98535.98;221846;193;665631;-69
2023/07/03 18:13:15;;;;;;;20.30;12.70;;;;;;;26.26;36.58;98535.58;222362;189;666897;-66
2023/07/03 18:18:19;;;;;;;219.00;187.70;;;;;;;26.15;36.87;98532.57;223299;185;137296;-65
2023/07/03 18:23:23;;;;;;;23.20;15.90;;;;;;;26.07;37.53;98535.48;223440;184;143902;-66
2023/07/03 18:28:26;;;;;;;17.50;10.10;;;;;;;25.99;37.31;98537.27;223688;183;141196;-66
2023/07/03 18:33:29;;;;;;;16.10;9.00;;;;;;;25.87;38.52;98541.02;223632;183;137373;-65
2023/07/03 18:38:35;;;;;;;18.70;9.40;;;;;;;25.65;39.47;98541.73;223737;183;143862;-66
2023/07/03 18:43:38;;;;;;;21.40;9.40;;;;;;;25.45;39.60;98552.80;223681;183;138864;-65
2023/07/03 18:48:41;;;;;;;24.00;12.30;;;;;;;25.27;40.25;98560.26;223750;183;137185;-65
2023/07/03 18:53:45;;;;;;;20.10;12.50;;;;;;;25.12;41.11;98562.83;223799;182;144281;-66
2023/07/03 18:58:48;;;;;;;16.00;9.50;;;;;;;24.96;41.56;98569.16;223725;182;138252;-65
2023/07/03 19:03:52;;;;;;;26.20;11.80;;;;;;;24.82;42.00;98573.70;223788;182;137184;-66
2023/07/03 19:08:57;;;;;;;18.20;11.30;;;;;;;24.66;42.57;98585.05;223741;182;145618;-66
2023/07/03 19:14:01;;;;;;;24.80;15.10;;;;;;;24.53;43.06;98591.98;223556;182;139780;-69
2023/07/03 19:19:05;;;;;;;18.50;10.10;;;;;;;24.37;44.37;98607.75;223528;183;138039;-68
2023/07/03 19:24:08;;;;;;;17.60;9.70;;;;;;;24.18;44.65;98608.91;223511;183;145188;-66
2023/07/03 19:29:13;;;;;;;;;;;;;;;24.01;45.20;98617.60;223603;183;139256;-67
2023/07/03 19:34:17;;;;;;;20.80;9.90;;;;;;;23.86;45.87;98618.05;223729;183;129290;-66
2023/07/03 19:39:20;;;;;;;18.40;10.10;;;;;;;23.71;46.83;98621.79;223728;182;147925;-66
2023/07/03 19:44:25;;;;;;;22.50;10.40;;;;;;;23.60;47.06;98624.88;223568;183;138436;-68
2023/07/03 19:49:29;;;;;;;22.20;12.50;;;;;;;23.52;47.53;98627.53;223671;183;136750;-65
2023/07/03 19:54:32;;;;;;;21.20;12.30;;;;;;;23.43;48.86;98623.09;223586;183;145329;-67
2023/07/03 19:59:35;;;;;;;18.80;11.10;;;;;;;23.31;49.19;98626.70;223550;193;138244;-66
2023/07/03 20:04:39;;;;;;;23.80;10.70;;;;;;;23.23;48.99;98619.73;223642;205;136762;-70
2023/07/03 20:13:15;;;;;;;17.30;9.90;;;;;;;23.11;49.52;98624.19;221400;192;665881;-64
2023/07/03 20:18:18;;;;;;;17.80;11.30;;;;;;;23.03;49.98;98632.92;223484;184;136678;-67
2023/07/03 20:23:23;;;;;;;22.70;11.70;;;;;;;23.00;50.44;98637.58;223703;183;144129;-65
2023/07/03 20:28:26;;;;;;;;;;;;;;;22.97;50.95;98637.75;223706;182;139417;-67
2023/07/03 20:33:30;;;;;;;21.50;11.50;;;;;;;22.95;51.44;98636.29;223797;182;127390;-66
2023/07/03 20:38:33;;;;;;;21.30;11.40;;;;;;;22.93;51.44;98640.70;223670;183;143102;-67
2023/07/03 20:43:39;;;;;;;17.10;10.70;;;;;;;22.91;51.94;98639.76;223558;183;138260;-67
2023/07/03 20:48:44;;;;;;;19.00;10.90;;;;;;;22.89;52.09;98639.27;223760;183;139355;-67
2023/07/03 20:59:00;;;;;;;23.80;11.90;;;;;;;22.83;53.37;98635.32;223603;183;138432;-66
2023/07/03 21:04:06;;;;;;;21.20;11.40;;;;;;;22.78;53.99;98633.38;223662;183;138051;-65
2023/07/03 21:09:09;;;;;;;24.80;12.00;;;;;;;22.75;54.14;98637.35;223836;177;145298;-66
2023/07/03 21:14:13;;;;;;;22.50;11.60;;;;;;;22.73;54.11;98641.27;223857;181;138970;-66
2023/07/03 21:19:25;;;;;;;20.10;10.20;;;;;;;22.69;54.40;98644.67;223681;181;137585;-67
2023/07/03 21:24:28;;;;;;;18.40;11.00;;;;;;;22.61;55.07;98650.98;223789;181;145299;-66
2023/07/03 21:29:31;;;;;;;19.80;10.70;;;;;;;22.56;55.38;98655.58;223614;181;138325;-64
2023/07/03 21:34:34;;;;;;;17.50;11.00;;;;;;;22.50;55.62;98654.84;223755;181;137001;-65
2023/07/03 21:39:39;;;;;;;20.50;10.90;;;;;;;22.44;56.07;98652.66;223748;181;146061;-69
2023/07/03 21:44:42;;;;;;;17.90;10.60;;;;;;;22.37;55.88;98659.59;223671;181;139632;-67
2023/07/03 21:49:48;;;;;;;17.60;10.20;;;;;;;22.33;56.17;98659.88;223665;181;137284;-66
2023/07/03 21:54:51;;;;;;;22.30;11.60;;;;;;;22.29;55.85;98662.85;223745;181;145528;-66
2023/07/03 21:59:54;;;;;;;16.10;10.50;;;;;;;22.25;55.58;98670.98;223748;181;138628;-65
2023/07/03 22:04:58;;;;;;;19.10;11.00;;;;;;;22.24;54.86;98677.10;223751;181;136889;-66
2023/07/03 22:15:39;;;;;;;19.90;10.60;;;;;;;22.31;55.72;98680.58;222070;193;665676;-69
2023/07/03 22:20:45;;;;;;;19.60;10.90;;;;;;;22.26;55.85;98675.86;223712;182;136821;-68
2023/07/03 22:25:49;;;;;;;17.00;10.20;;;;;;;22.25;56.40;98672.59;223877;181;144184;-66
2023/07/03 22:30:54;;;;;;;19.80;11.50;;;;;;;22.24;56.91;98666.20;223925;181;139200;-65
2023/07/03 22:35:57;;;;;;;15.50;9.70;;;;;;;22.22;56.97;98672.27;223986;181;136928;-65
2023/07/03 22:41:01;;;;;;;19.50;10.30;;;;;;;22.17;56.91;98673.42;223899;181;143340;-65
2023/07/03 22:46:06;;;;;;;20.30;9.90;;;;;;;22.12;56.83;98671.02;223872;181;138679;-66
2023/07/03 22:51:12;;;;;;;14.90;9.50;;;;;;;22.06;57.01;98664.15;224032;181;137938;-65
2023/07/03 22:56:16;;;;;;;18.10;10.20;;;;;;;22.01;57.28;98668.31;223991;181;143901;-66
2023/07/03 23:01:19;;;;;;;16.90;10.10;;;;;;;21.97;57.42;98669.98;223817;181;138403;-65
2023/07/03 23:06:22;;;;;;;15.50;9.70;;;;;;;21.94;57.57;98671.29;223962;181;136510;-64
2023/07/03 23:11:25;;;;;;;18.70;10.30;;;;;;;21.92;57.98;98666.84;223737;180;146148;-68
2023/07/03 23:16:29;;;;;;;18.70;10.10;;;;;;;21.89;58.38;98663.69;223773;182;139709;-68
2023/07/03 23:21:32;;;;;;;17.70;10.60;;;;;;;21.87;58.78;98667.33;223767;181;137443;-68
2023/07/03 23:26:37;;;;;;;19.90;10.40;;;;;;;21.85;58.92;98670.28;223622;182;145440;-68
2023/07/03 23:31:44;;;;;;;17.90;10.30;;;;;;;21.84;58.85;98667.30;223679;182;139053;-68
2023/07/03 23:37:01;;;;;;;19.80;11.10;;;;;;;21.81;59.15;98672.58;223708;182;136837;-69
2023/07/03 23:42:07;;;;;;;22.40;12.20;;;;;;;21.79;59.47;98673.93;223698;181;145196;-68
2023/07/03 23:47:12;;;;;;;20.50;12.10;;;;;;;21.80;59.18;98670.02;223595;182;140129;-65
2023/07/03 23:52:16;;;;;;;21.90;11.50;;;;;;;21.84;58.92;98670.83;223577;182;137828;-66
2023/07/03 23:57:21;;;;;;;22.40;12.10;;;;;;;21.85;59.26;98671.37;223587;182;146163;-67
